sensor_id;sensor_type;location;lat;lon;timestamp;pressure;altitude;pressure_sealevel;temperature;humidity
26192;BME280;13935;55.672;37.764;2023-07-31T00:00:21;99276.88;;;17.90;100.00
26192;BME280;13935;55.672;37.764;2023-07-31T00:01:25;99272.50;;;17.89;100.00
26192;BME280;13935;55.672;37.764;2023-07-31T00:02:27;99286.84;;;17.91;100.00
26192;BME280;13935;55.672;37.764;2023-07-31T00:03:28;99276.88;;;17.90;100.00
26192;BME280;13935;55.672;37.764;2023-07-31T00:04:30;99280.91;;;17.89;100.00
26192;BME280;13935;55.672;37.764;2023-07-31T00:05:32;99281.72;;;17.89;100.00
26192;BME280;13935;55.672;37.764;2023-07-31T00:06:34;99275.31;;;17.89;100.00
26192;BME280;13935;55.672;37.764;2023-07-31T00:07:36;99276.56;;;17.88;100.00
26192;BME280;13935;55.672;37.764;2023-07-31T00:08:38;99278.91;;;17.89;100.00
26192;BME280;13935;55.672;37.764;2023-07-31T00:09:39;99275.66;;;17.91;100.00
26192;BME280;13935;55.672;37.764;2023-07-31T00:10:44;99275.66;;;17.91;100.00
26192;BME280;13935;55.672;37.764;2023-07-31T00:11:45;99278.47;;;17.91;100.00
26192;BME280;13935;55.672;37.764;2023-07-31T00:12:47;99281.25;;;17.91;100.00
26192;BME280;13935;55.672;37.764;2023-07-31T00:13:49;99273.78;;;17.88;100.00
26192;BME280;13935;55.672;37.764;2023-07-31T00:14:51;99276.56;;;17.88;100.00
26192;BME280;13935;55.672;37.764;2023-07-31T00:17:20;99278.25;;;17.86;100.00
26192;BME280;13935;55.672;37.764;2023-07-31T00:18:22;99273.44;;;17.86;100.00
26192;BME280;13935;55.672;37.764;2023-07-31T00:19:24;99270.63;;;17.86;100.00
26192;BME280;13935;55.672;37.764;2023-07-31T00:20:25;99271.41;;;17.87;100.00
26192;BME280;13935;55.672;37.764;2023-07-31T00:21:28;99275.88;;;17.84;100.00
26192;BME280;13935;55.672;37.764;2023-07-31T00:22:30;99267.19;;;17.82;100.00
26192;BME280;13935;55.672;37.764;2023-07-31T00:23:31;99274.31;;;17.83;100.00
26192;BME280;13935;55.672;37.764;2023-07-31T00:24:33;99274.66;;;17.85;100.00
26192;BME280;13935;55.672;37.764;2023-07-31T00:25:35;99276.22;;;17.86;100.00
26192;BME280;13935;55.672;37.764;2023-07-31T00:26:37;99273.44;;;17.86;100.00
26192;BME280;13935;55.672;37.764;2023-07-31T00:27:39;99279.81;;;17.87;100.00
26192;BME280;13935;55.672;37.764;2023-07-31T00:28:45;99282.28;;;17.85;100.00
26192;BME280;13935;55.672;37.764;2023-07-31T00:29:48;99284.63;;;17.86;100.00
26192;BME280;13935;55.672;37.764;2023-07-31T00:30:50;99277.47;;;17.85;100.00
26192;BME280;13935;55.672;37.764;2023-07-31T00:31:52;99279.03;;;17.86;100.00
26192;BME280;13935;55.672;37.764;2023-07-31T00:32:54;99275.88;;;17.84;100.00
26192;BME280;13935;55.672;37.764;2023-07-31T00:33:55;99274.66;;;17.85;100.00
26192;BME280;13935;55.672;37.764;2023-07-31T00:34:57;99272.66;;;17.86;100.00
26192;BME280;13935;55.672;37.764;2023-07-31T00:35:59;99282.41;;;17.81;100.00
26192;BME280;13935;55.672;37.764;2023-07-31T00:37:01;99274.00;;;17.81;100.00
26192;BME280;13935;55.672;37.764;2023-07-31T00:38:03;99276.47;;;17.79;100.00
26192;BME280;13935;55.672;37.764;2023-07-31T00:39:05;99279.25;;;17.79;100.00
26192;BME280;13935;55.672;37.764;2023-07-31T00:40:06;99268.88;;;17.80;100.00
26192;BME280;13935;55.672;37.764;2023-07-31T00:41:09;99275.22;;;17.80;100.00
26192;BME280;13935;55.672;37.764;2023-07-31T00:42:11;99268.19;;;17.76;100.00
26192;BME280;13935;55.672;37.764;2023-07-31T00:43:12;99270.22;;;17.75;100.00
26192;BME280;13935;55.672;37.764;2023-07-31T00:44:15;99273.78;;;17.76;100.00
26192;BME280;13935;55.672;37.764;2023-07-31T00:45:17;99271.09;;;17.72;100.00
26192;BME280;13935;55.672;37.764;2023-07-31T00:46:19;99267.06;;;17.73;100.00
26192;BME280;13935;55.672;37.764;2023-07-31T00:47:21;99265.94;;;17.71;100.00
26192;BME280;13935;55.672;37.764;2023-07-31T00:48:23;99259.59;;;17.70;100.00
26192;BME280;13935;55.672;37.764;2023-07-31T00:49:25;99272.78;;;17.70;100.00
26192;BME280;13935;55.672;37.764;2023-07-31T00:50:27;99266.41;;;17.69;100.00
26192;BME280;13935;55.672;37.764;2023-07-31T00:51:29;99265.19;;;17.70;100.00
26192;BME280;13935;55.672;37.764;2023-07-31T00:52:31;99266.72;;;17.71;100.00
26192;BME280;13935;55.672;37.764;2023-07-31T00:53:33;99269.53;;;17.71;100.00
26192;BME280;13935;55.672;37.764;2023-07-31T00:54:35;99267.53;;;17.72;100.00
26192;BME280;13935;55.672;37.764;2023-07-31T00:55:37;99270.44;;;17.68;100.00
26192;BME280;13935;55.672;37.764;2023-07-31T00:56:40;99261.13;;;17.71;100.00
26192;BME280;13935;55.672;37.764;2023-07-31T00:57:42;99269.53;;;17.71;100.00
26192;BME280;13935;55.672;37.764;2023-07-31T00:58:45;99270.78;;;17.70;100.00
26192;BME280;13935;55.672;37.764;2023-07-31T00:59:48;99263.91;;;17.71;100.00
26192;BME280;13935;55.672;37.764;2023-07-31T01:00:50;99269.97;;;17.70;100.00
26192;BME280;13935;55.672;37.764;2023-07-31T01:01:53;99266.84;;;17.68;100.00
26192;BME280;13935;55.672;37.764;2023-07-31T01:02:55;99267.63;;;17.68;100.00
26192;BME280;13935;55.672;37.764;2023-07-31T01:03:57;99271.19;;;17.69;100.00
26192;BME280;13935;55.672;37.764;2023-07-31T01:05:00;99266.06;;;17.67;100.00
26192;BME280;13935;55.672;37.764;2023-07-31T01:07:12;99268.50;;;17.65;100.00
26192;BME280;13935;55.672;37.764;2023-07-31T01:08:18;99266.94;;;17.64;100.00
26192;BME280;13935;55.672;37.764;2023-07-31T01:10:27;99273.34;;;17.65;100.00
26192;BME280;13935;55.672;37.764;2023-07-31T01:11:33;99262.91;;;17.65;100.00
26192;BME280;13935;55.672;37.764;2023-07-31T01:12:36;99256.91;;;17.67;100.00
26192;BME280;13935;55.672;37.764;2023-07-31T01:13:39;99266.94;;;17.64;100.00
26192;BME280;13935;55.672;37.764;2023-07-31T01:14:50;99269.75;;;17.64;100.00
26192;BME280;13935;55.672;37.764;2023-07-31T01:15:52;99268.50;;;17.65;100.00
26192;BME280;13935;55.672;37.764;2023-07-31T01:16:55;99272.53;;;17.64;100.00
26192;BME280;13935;55.672;37.764;2023-07-31T01:17:57;99275.69;;;17.66;100.00
26192;BME280;13935;55.672;37.764;2023-07-31T01:18:59;99275.34;;;17.64;100.00
26192;BME280;13935;55.672;37.764;2023-07-31T01:20:02;99282.19;;;17.63;100.00
26192;BME280;13935;55.672;37.764;2023-07-31T01:21:11;99270.31;;;17.59;100.00
26192;BME280;13935;55.672;37.764;2023-07-31T01:23:41;99268.75;;;17.58;100.00
26192;BME280;13935;55.672;37.764;2023-07-31T01:26:22;99271.22;;;17.56;100.00
26192;BME280;13935;55.672;37.764;2023-07-31T01:27:25;99278.38;;;17.57;100.00
26192;BME280;13935;55.672;37.764;2023-07-31T01:30:11;99271.22;;;17.56;100.00
26192;BME280;13935;55.672;37.764;2023-07-31T01:31:19;99270.41;;;17.56;100.00
26192;BME280;13935;55.672;37.764;2023-07-31T01:32:22;99268.88;;;17.55;100.00
26192;BME280;13935;55.672;37.764;2023-07-31T01:33:24;99274.47;;;17.55;100.00
26192;BME280;13935;55.672;37.764;2023-07-31T01:34:26;99271.22;;;17.56;100.00
26192;BME280;13935;55.672;37.764;2023-07-31T01:35:28;99271.22;;;17.56;100.00
26192;BME280;13935;55.672;37.764;2023-07-31T01:36:31;99269.19;;;17.57;100.00
26192;BME280;13935;55.672;37.764;2023-07-31T01:37:33;99274.03;;;17.56;100.00
26192;BME280;13935;55.672;37.764;2023-07-31T01:38:35;99268.75;;;17.58;100.00
26192;BME280;13935;55.672;37.764;2023-07-31T01:39:37;99267.19;;;17.57;100.00
26192;BME280;13935;55.672;37.764;2023-07-31T01:40:41;99270.31;;;17.59;100.00
26192;BME280;13935;55.672;37.764;2023-07-31T01:41:44;99273.09;;;17.59;100.00
26192;BME280;13935;55.672;37.764;2023-07-31T01:42:46;99270.31;;;17.59;100.00
26192;BME280;13935;55.672;37.764;2023-07-31T01:43:49;99271.53;;;17.58;100.00
26192;BME280;13935;55.672;37.764;2023-07-31T01:44:50;99277.69;;;17.53;100.00
26192;BME280;13935;55.672;37.764;2023-07-31T01:45:53;99269.53;;;17.59;100.00
26192;BME280;13935;55.672;37.764;2023-07-31T01:46:58;99262.03;;;17.56;100.00
26192;BME280;13935;55.672;37.764;2023-07-31T01:48:01;99268.75;;;17.58;100.00
26192;BME280;13935;55.672;37.764;2023-07-31T01:49:03;99277.13;;;17.58;100.00
26192;BME280;13935;55.672;37.764;2023-07-31T01:50:07;99272.69;;;17.61;100.00
26192;BME280;13935;55.672;37.764;2023-07-31T01:51:09;99276.59;;;17.63;100.00
26192;BME280;13935;55.672;37.764;2023-07-31T01:52:11;99271.00;;;17.63;100.00
26192;BME280;13935;55.672;37.764;2023-07-31T01:53:12;99275.34;;;17.64;100.00
26192;BME280;13935;55.672;37.764;2023-07-31T01:54:14;99266.06;;;17.67;100.00
26192;BME280;13935;55.672;37.764;2023-07-31T01:55:16;99263.72;;;17.66;100.00
26192;BME280;13935;55.672;37.764;2023-07-31T01:56:18;99264.50;;;17.66;100.00
26192;BME280;13935;55.672;37.764;2023-07-31T01:57:20;99271.66;;;17.67;100.00
26192;BME280;13935;55.672;37.764;2023-07-31T01:58:22;99270.88;;;17.67;100.00
26192;BME280;13935;55.672;37.764;2023-07-31T01:59:23;99275.56;;;17.70;100.00
26192;BME280;13935;55.672;37.764;2023-07-31T02:00:25;99275.69;;;17.66;100.00
26192;BME280;13935;55.672;37.764;2023-07-31T02:01:27;99269.22;;;17.69;100.00
26192;BME280;13935;55.672;37.764;2023-07-31T02:02:29;99273.13;;;17.72;100.00
26192;BME280;13935;55.672;37.764;2023-07-31T02:03:32;99270.63;;;17.74;100.00
26192;BME280;13935;55.672;37.764;2023-07-31T02:04:34;99273.00;;;17.75;100.00
26192;BME280;13935;55.672;37.764;2023-07-31T02:05:43;99273.44;;;17.74;100.00
26192;BME280;13935;55.672;37.764;2023-07-31T02:06:45;99273.00;;;17.75;100.00
26192;BME280;13935;55.672;37.764;2023-07-31T02:07:47;99281.81;;;17.74;100.00
26192;BME280;13935;55.672;37.764;2023-07-31T02:08:49;99278.59;;;17.75;100.00
26192;BME280;13935;55.672;37.764;2023-07-31T02:09:51;99276.91;;;17.78;100.00
26192;BME280;13935;55.672;37.764;2023-07-31T02:10:54;99273.66;;;17.79;100.00
26192;BME280;13935;55.672;37.764;2023-07-31T02:11:55;99278.59;;;17.75;100.00
26192;BME280;13935;55.672;37.764;2023-07-31T02:12:57;99284.19;;;17.75;100.00
26192;BME280;13935;55.672;37.764;2023-07-31T02:13:59;99283.41;;;17.75;100.00
26192;BME280;13935;55.672;37.764;2023-07-31T02:15:01;99282.50;;;17.78;100.00
26192;BME280;13935;55.672;37.764;2023-07-31T02:16:04;99278.91;;;17.77;100.00
26192;BME280;13935;55.672;37.764;2023-07-31T02:17:07;99282.50;;;17.78;100.00
26192;BME280;13935;55.672;37.764;2023-07-31T02:18:30;99280.47;;;17.78;100.00
26192;BME280;13935;55.672;37.764;2023-07-31T02:19:32;99277.03;;;17.74;100.00
26192;BME280;13935;55.672;37.764;2023-07-31T02:20:34;99283.97;;;17.82;100.00
26192;BME280;13935;55.672;37.764;2023-07-31T02:21:36;99281.59;;;17.81;100.00
26192;BME280;13935;55.672;37.764;2023-07-31T02:22:38;99285.09;;;17.85;100.00
26192;BME280;13935;55.672;37.764;2023-07-31T02:23:40;99286.19;;;17.87;100.00
26192;BME280;13935;55.672;37.764;2023-07-31T02:24:42;99291.13;;;17.83;100.00
26192;BME280;13935;55.672;37.764;2023-07-31T02:25:43;99290.47;;;17.79;100.00
26192;BME280;13935;55.672;37.764;2023-07-31T02:26:45;99289.56;;;17.82;100.00
26192;BME280;13935;55.672;37.764;2023-07-31T02:27:48;99289.31;;;17.89;100.00
26192;BME280;13935;55.672;37.764;2023-07-31T02:28:49;99292.56;;;17.88;100.00
26192;BME280;13935;55.672;37.764;2023-07-31T02:29:51;99282.41;;;17.81;100.00
26192;BME280;13935;55.672;37.764;2023-07-31T02:30:53;99289.56;;;17.82;100.00
26192;BME280;13935;55.672;37.764;2023-07-31T02:31:56;99287.88;;;17.85;100.00
26192;BME280;13935;55.672;37.764;2023-07-31T02:32:58;99289.56;;;17.82;100.00
26192;BME280;13935;55.672;37.764;2023-07-31T02:34:00;99296.50;;;17.78;100.00
26192;BME280;13935;55.672;37.764;2023-07-31T02:35:02;99289.47;;;17.86;100.00
26192;BME280;13935;55.672;37.764;2023-07-31T02:36:04;99285.28;;;17.90;100.00
26192;BME280;13935;55.672;37.764;2023-07-31T02:37:10;99292.66;;;18.09;100.00
26192;BME280;13935;55.672;37.764;2023-07-31T02:38:11;99281.53;;;18.85;100.00
26192;BME280;13935;55.672;37.764;2023-07-31T02:39:13;99276.13;;;19.73;100.00
26192;BME280;13935;55.672;37.764;2023-07-31T02:40:15;99274.56;;;20.29;100.00
26192;BME280;13935;55.672;37.764;2023-07-31T02:41:18;99281.97;;;20.80;100.00
26192;BME280;13935;55.672;37.764;2023-07-31T02:42:20;99275.97;;;21.23;100.00
26192;BME280;13935;55.672;37.764;2023-07-31T02:43:22;99278.06;;;21.63;100.00
26192;BME280;13935;55.672;37.764;2023-07-31T02:44:24;99272.97;;;21.85;100.00
26192;BME280;13935;55.672;37.764;2023-07-31T02:45:26;99269.97;;;22.12;100.00
26192;BME280;13935;55.672;37.764;2023-07-31T02:46:28;99265.63;;;22.34;100.00
26192;BME280;13935;55.672;37.764;2023-07-31T02:47:29;99264.97;;;22.77;100.00
26192;BME280;13935;55.672;37.764;2023-07-31T02:48:31;99271.19;;;23.19;100.00
26192;BME280;13935;55.672;37.764;2023-07-31T02:49:33;99278.28;;;23.43;100.00
26192;BME280;13935;55.672;37.764;2023-07-31T02:50:35;99274.75;;;23.91;100.00
26192;BME280;13935;55.672;37.764;2023-07-31T02:51:37;99272.66;;;24.26;100.00
26192;BME280;13935;55.672;37.764;2023-07-31T02:52:39;99271.16;;;24.45;100.00
26192;BME280;13935;55.672;37.764;2023-07-31T02:53:42;99273.38;;;25.01;100.00
26192;BME280;13935;55.672;37.764;2023-07-31T02:54:44;99273.88;;;25.50;97.76
26192;BME280;13935;55.672;37.764;2023-07-31T02:55:46;99275.19;;;25.80;92.54
26192;BME280;13935;55.672;37.764;2023-07-31T02:56:48;99274.16;;;26.13;92.07
26192;BME280;13935;55.672;37.764;2023-07-31T02:57:50;99269.41;;;26.41;86.73
26192;BME280;13935;55.672;37.764;2023-07-31T02:58:54;99279.53;;;26.48;86.07
26192;BME280;13935;55.672;37.764;2023-07-31T02:59:56;99266.50;;;26.83;81.39
26192;BME280;13935;55.672;37.764;2023-07-31T03:00:58;99269.16;;;27.03;77.99
26192;BME280;13935;55.672;37.764;2023-07-31T03:02:00;99269.19;;;27.14;78.30
26192;BME280;13935;55.672;37.764;2023-07-31T03:03:02;99267.94;;;27.37;75.25
26192;BME280;13935;55.672;37.764;2023-07-31T03:04:04;99271.78;;;27.12;73.90
26192;BME280;13935;55.672;37.764;2023-07-31T03:05:06;99279.53;;;27.06;76.68
26192;BME280;13935;55.672;37.764;2023-07-31T03:06:08;99273.09;;;27.38;75.69
26192;BME280;13935;55.672;37.764;2023-07-31T03:07:10;99276.00;;;27.76;74.31
26192;BME280;13935;55.672;37.764;2023-07-31T03:08:12;99276.00;;;27.65;73.23
26192;BME280;13935;55.672;37.764;2023-07-31T03:09:14;99283.22;;;27.61;70.40
26192;BME280;13935;55.672;37.764;2023-07-31T03:10:16;99277.28;;;27.97;68.41
26192;BME280;13935;55.672;37.764;2023-07-31T03:11:18;99281.03;;;28.60;69.85
26192;BME280;13935;55.672;37.764;2023-07-31T03:12:20;99281.16;;;27.94;64.30
26192;BME280;13935;55.672;37.764;2023-07-31T03:13:23;99286.69;;;28.71;59.50
26192;BME280;13935;55.672;37.764;2023-07-31T03:14:25;99270.75;;;28.35;60.15
26192;BME280;13935;55.672;37.764;2023-07-31T03:15:28;99281.66;;;27.54;63.24
26192;BME280;13935;55.672;37.764;2023-07-31T03:16:30;99283.91;;;27.12;64.51
26192;BME280;13935;55.672;37.764;2023-07-31T03:17:31;99271.81;;;27.50;62.55
26192;BME280;13935;55.672;37.764;2023-07-31T03:18:33;99263.28;;;27.34;62.33
26192;BME280;13935;55.672;37.764;2023-07-31T03:19:35;99268.22;;;27.49;61.52
26192;BME280;13935;55.672;37.764;2023-07-31T03:20:37;99269.28;;;27.68;60.32
26192;BME280;13935;55.672;37.764;2023-07-31T03:21:39;99265.84;;;27.26;60.88
26192;BME280;13935;55.672;37.764;2023-07-31T03:22:40;99265.22;;;26.78;63.38
26192;BME280;13935;55.672;37.764;2023-07-31T03:23:42;99265.31;;;25.70;72.97
26192;BME280;13935;55.672;37.764;2023-07-31T03:24:45;99273.00;;;25.64;72.23
26192;BME280;13935;55.672;37.764;2023-07-31T03:26:00;99268.63;;;24.92;77.32
26192;BME280;13935;55.672;37.764;2023-07-31T03:27:03;99268.81;;;24.83;79.49
26192;BME280;13935;55.672;37.764;2023-07-31T03:28:05;99263.84;;;24.39;84.47
26192;BME280;13935;55.672;37.764;2023-07-31T03:29:07;99270.00;;;24.17;86.74
26192;BME280;13935;55.672;37.764;2023-07-31T03:30:09;99263.22;;;23.95;89.35
26192;BME280;13935;55.672;37.764;2023-07-31T03:31:11;99272.63;;;23.43;89.78
26192;BME280;13935;55.672;37.764;2023-07-31T03:32:13;99275.47;;;23.43;93.81
26192;BME280;13935;55.672;37.764;2023-07-31T03:33:15;99267.28;;;23.16;95.40
26192;BME280;13935;55.672;37.764;2023-07-31T03:34:17;99262.22;;;23.06;99.00
26192;BME280;13935;55.672;37.764;2023-07-31T03:35:18;99263.41;;;22.76;99.99
26192;BME280;13935;55.672;37.764;2023-07-31T03:36:24;99267.38;;;22.32;100.00
26192;BME280;13935;55.672;37.764;2023-07-31T03:37:25;99258.09;;;22.08;100.00
26192;BME280;13935;55.672;37.764;2023-07-31T03:38:28;99272.13;;;22.17;100.00
26192;BME280;13935;55.672;37.764;2023-07-31T03:39:30;99265.75;;;21.84;100.00
26192;BME280;13935;55.672;37.764;2023-07-31T03:40:32;99269.84;;;21.83;100.00
26192;BME280;13935;55.672;37.764;2023-07-31T03:41:36;99265.91;;;21.49;100.00
26192;BME280;13935;55.672;37.764;2023-07-31T03:42:38;99268.41;;;21.38;100.00
26192;BME280;13935;55.672;37.764;2023-07-31T03:43:39;99268.19;;;21.68;100.00
26192;BME280;13935;55.672;37.764;2023-07-31T03:44:41;99264.88;;;21.69;100.00
26192;BME280;13935;55.672;37.764;2023-07-31T03:45:44;99272.34;;;21.81;100.00
26192;BME280;13935;55.672;37.764;2023-07-31T03:46:46;99263.16;;;21.72;100.00
26192;BME280;13935;55.672;37.764;2023-07-31T03:47:48;99262.38;;;21.71;100.00
26192;BME280;13935;55.672;37.764;2023-07-31T03:48:50;99259.28;;;21.52;100.00
26192;BME280;13935;55.672;37.764;2023-07-31T03:49:52;99267.31;;;21.44;100.00
26192;BME280;13935;55.672;37.764;2023-07-31T03:50:54;99262.63;;;21.41;100.00
26192;BME280;13935;55.672;37.764;2023-07-31T03:51:56;99259.47;;;21.48;100.00
26192;BME280;13935;55.672;37.764;2023-07-31T03:52:58;99259.63;;;21.45;100.00
26192;BME280;13935;55.672;37.764;2023-07-31T03:54:00;99266.53;;;21.85;100.00
26192;BME280;13935;55.672;37.764;2023-07-31T03:55:03;99259.88;;;22.29;100.00
26192;BME280;13935;55.672;37.764;2023-07-31T03:56:04;99260.75;;;23.10;100.00
26192;BME280;13935;55.672;37.764;2023-07-31T03:57:10;99253.81;;;24.38;92.92
26192;BME280;13935;55.672;37.764;2023-07-31T03:58:13;99256.81;;;25.44;85.09
26192;BME280;13935;55.672;37.764;2023-07-31T03:59:15;99267.50;;;25.86;76.06
26192;BME280;13935;55.672;37.764;2023-07-31T04:00:17;99263.94;;;26.32;71.89
26192;BME280;13935;55.672;37.764;2023-07-31T04:01:19;99257.59;;;27.44;66.34
26192;BME280;13935;55.672;37.764;2023-07-31T04:02:21;99262.00;;;27.40;59.77
26192;BME280;13935;55.672;37.764;2023-07-31T04:03:23;99265.66;;;27.90;58.78
26192;BME280;13935;55.672;37.764;2023-07-31T04:04:25;99268.22;;;27.49;60.32
26192;BME280;13935;55.672;37.764;2023-07-31T04:05:26;99271.78;;;28.43;55.96
26192;BME280;13935;55.672;37.764;2023-07-31T04:06:29;99270.50;;;28.38;55.74
26192;BME280;13935;55.672;37.764;2023-07-31T04:07:31;99268.53;;;29.65;52.63
26192;BME280;13935;55.672;37.764;2023-07-31T04:08:33;99272.22;;;28.58;53.88
26192;BME280;13935;55.672;37.764;2023-07-31T04:09:35;99279.47;;;30.20;48.84
26192;BME280;13935;55.672;37.764;2023-07-31T04:10:36;99274.66;;;28.99;49.27
26192;BME280;13935;55.672;37.764;2023-07-31T04:11:38;99278.97;;;29.57;49.05
26192;BME280;13935;55.672;37.764;2023-07-31T04:12:40;99275.03;;;29.95;45.52
26192;BME280;13935;55.672;37.764;2023-07-31T04:13:42;99269.13;;;29.87;46.22
26192;BME280;13935;55.672;37.764;2023-07-31T04:14:44;99275.22;;;30.02;47.10
26192;BME280;13935;55.672;37.764;2023-07-31T04:15:49;99283.66;;;30.85;44.32
26192;BME280;13935;55.672;37.764;2023-07-31T04:16:53;99285.06;;;31.70;41.80
26192;BME280;13935;55.672;37.764;2023-07-31T04:17:55;99286.78;;;31.42;43.24
26192;BME280;13935;55.672;37.764;2023-07-31T04:18:56;99287.88;;;31.39;41.73
26192;BME280;13935;55.672;37.764;2023-07-31T04:19:58;99279.91;;;32.13;41.00
26192;BME280;13935;55.672;37.764;2023-07-31T04:21:00;99286.94;;;31.68;41.30
26192;BME280;13935;55.672;37.764;2023-07-31T04:22:07;99286.28;;;32.63;39.77
26192;BME280;13935;55.672;37.764;2023-07-31T04:23:09;99284.56;;;32.16;40.39
26192;BME280;13935;55.672;37.764;2023-07-31T04:24:11;99287.00;;;32.51;38.41
26192;BME280;13935;55.672;37.764;2023-07-31T04:25:13;99292.44;;;31.29;39.42
26192;BME280;13935;55.672;37.764;2023-07-31T04:26:14;99289.34;;;32.39;38.90
26192;BME280;13935;55.672;37.764;2023-07-31T04:27:16;99294.91;;;31.38;40.23
26192;BME280;13935;55.672;37.764;2023-07-31T04:28:18;99301.84;;;32.10;39.25
26192;BME280;13935;55.672;37.764;2023-07-31T04:29:20;99300.38;;;33.13;37.41
26192;BME280;13935;55.672;37.764;2023-07-31T04:30:21;99296.72;;;33.58;37.44
26192;BME280;13935;55.672;37.764;2023-07-31T04:31:23;99303.16;;;33.51;36.42
26192;BME280;13935;55.672;37.764;2023-07-31T04:32:26;99305.56;;;34.97;34.08
26192;BME280;13935;55.672;37.764;2023-07-31T04:33:28;99301.59;;;33.84;36.24
26192;BME280;13935;55.672;37.764;2023-07-31T04:34:30;99310.13;;;34.93;34.33
26192;BME280;13935;55.672;37.764;2023-07-31T04:35:32;99301.25;;;34.84;34.45
26192;BME280;13935;55.672;37.764;2023-07-31T04:36:34;99301.09;;;34.54;33.62
26192;BME280;13935;55.672;37.764;2023-07-31T04:37:36;99305.78;;;34.72;33.54
26192;BME280;13935;55.672;37.764;2023-07-31T04:38:37;99305.91;;;34.87;33.29
26192;BME280;13935;55.672;37.764;2023-07-31T04:39:39;99302.88;;;34.16;34.43
26192;BME280;13935;55.672;37.764;2023-07-31T04:40:41;99301.09;;;34.54;33.57
26192;BME280;13935;55.672;37.764;2023-07-31T04:41:44;99299.41;;;34.38;33.50
26192;BME280;13935;55.672;37.764;2023-07-31T04:42:46;99306.16;;;35.39;33.66
26192;BME280;13935;55.672;37.764;2023-07-31T04:43:48;99293.53;;;34.23;34.58
26192;BME280;13935;55.672;37.764;2023-07-31T04:44:49;99293.72;;;33.31;35.83
26192;BME280;13935;55.672;37.764;2023-07-31T04:45:51;99295.00;;;33.96;34.89
26192;BME280;13935;55.672;37.764;2023-07-31T04:46:56;99297.34;;;34.18;34.49
26192;BME280;13935;55.672;37.764;2023-07-31T04:47:58;99302.19;;;34.51;33.46
26192;BME280;13935;55.672;37.764;2023-07-31T04:49:00;99299.50;;;34.05;35.91
26192;BME280;13935;55.672;37.764;2023-07-31T04:50:01;99299.00;;;34.89;33.56
26192;BME280;13935;55.672;37.764;2023-07-31T04:51:03;99312.63;;;35.24;33.94
26192;BME280;13935;55.672;37.764;2023-07-31T04:52:06;99300.78;;;35.35;32.17
26192;BME280;13935;55.672;37.764;2023-07-31T04:53:07;99308.03;;;35.71;31.73
26192;BME280;13935;55.672;37.764;2023-07-31T04:54:09;99306.03;;;35.52;31.72
26192;BME280;13935;55.672;37.764;2023-07-31T04:55:12;99307.81;;;35.77;32.54
26192;BME280;13935;55.672;37.764;2023-07-31T04:56:14;99310.91;;;35.86;31.75
26192;BME280;13935;55.672;37.764;2023-07-31T04:57:18;99314.75;;;35.89;32.59
26192;BME280;13935;55.672;37.764;2023-07-31T04:58:19;99309.03;;;36.19;32.28
26192;BME280;13935;55.672;37.764;2023-07-31T04:59:21;99310.78;;;36.29;31.25
26192;BME280;13935;55.672;37.764;2023-07-31T05:00:23;99317.38;;;35.14;31.62
26192;BME280;13935;55.672;37.764;2023-07-31T05:01:25;99316.78;;;36.46;31.35
26192;BME280;13935;55.672;37.764;2023-07-31T05:02:27;99315.59;;;36.12;30.59
26192;BME280;13935;55.672;37.764;2023-07-31T05:03:29;99314.81;;;36.26;31.64
26192;BME280;13935;55.672;37.764;2023-07-31T05:04:30;99317.91;;;36.36;29.96
26192;BME280;13935;55.672;37.764;2023-07-31T05:05:32;99320.63;;;37.25;29.86
26192;BME280;13935;55.672;37.764;2023-07-31T05:06:34;99316.53;;;36.59;29.19
26192;BME280;13935;55.672;37.764;2023-07-31T05:07:36;99323.28;;;36.91;28.98
26192;BME280;13935;55.672;37.764;2023-07-31T05:08:38;99311.13;;;35.38;30.64
26192;BME280;13935;55.672;37.764;2023-07-31T05:09:40;99304.28;;;34.50;32.68
26192;BME280;13935;55.672;37.764;2023-07-31T05:10:42;99313.84;;;35.44;31.65
26192;BME280;13935;55.672;37.764;2023-07-31T05:11:45;99316.72;;;36.16;30.17
26192;BME280;13935;55.672;37.764;2023-07-31T05:12:47;99315.59;;;36.27;30.33
26192;BME280;13935;55.672;37.764;2023-07-31T05:13:49;99310.59;;;36.20;29.46
26192;BME280;13935;55.672;37.764;2023-07-31T05:14:50;99310.38;;;36.85;28.70
26192;BME280;13935;55.672;37.764;2023-07-31T05:15:52;99318.50;;;36.64;28.53
26192;BME280;13935;55.672;37.764;2023-07-31T05:16:54;99312.91;;;36.43;29.81
26192;BME280;13935;55.672;37.764;2023-07-31T05:17:56;99319.28;;;37.26;29.58
26192;BME280;13935;55.672;37.764;2023-07-31T05:18:58;99311.34;;;36.72;29.50
26192;BME280;13935;55.672;37.764;2023-07-31T05:20:00;99309.53;;;37.61;28.90
26192;BME280;13935;55.672;37.764;2023-07-31T05:21:02;99312.75;;;37.25;28.44
26192;BME280;13935;55.672;37.764;2023-07-31T05:22:04;99312.75;;;37.18;29.02
26192;BME280;13935;55.672;37.764;2023-07-31T05:23:06;99314.19;;;38.20;27.40
26192;BME280;13935;55.672;37.764;2023-07-31T05:24:08;99315.81;;;38.06;26.86
26192;BME280;13935;55.672;37.764;2023-07-31T05:25:10;99312.44;;;36.99;28.01
26192;BME280;13935;55.672;37.764;2023-07-31T05:26:11;99314.63;;;37.38;28.09
26192;BME280;13935;55.672;37.764;2023-07-31T05:27:13;99309.34;;;37.59;28.08
26192;BME280;13935;55.672;37.764;2023-07-31T05:28:21;99307.47;;;37.86;27.19
26192;BME280;13935;55.672;37.764;2023-07-31T05:29:22;99314.31;;;37.66;26.59
26192;BME280;13935;55.672;37.764;2023-07-31T05:30:24;99310.75;;;37.50;26.52
26192;BME280;13935;55.672;37.764;2023-07-31T05:31:26;99309.34;;;37.05;28.39
26192;BME280;13935;55.672;37.764;2023-07-31T05:32:28;99306.06;;;37.08;27.98